Bloom City, Wisconsin
Current Conditions -  °F | °C
As of 7:55 AM on Wednesday 28 Jan 2015 (Local Time) from KC35 Reporting Station
Overcast Overcast  
Wind Chill: 15°   Ceiling: 1000
Heat Index: 24°   Visibility: 7mi
Dew Point: 21°   Wind: 8mph
Humidity: 89%   Direction: 150°SSE
Pressure: 30.16"   Gusts: NA
Location:  43.6121°N, 90.3998°W
Report Text: KC35 281355Z AUTO 15007KT 7SM OVC010 M04/M06 A3016 RMK AO2 T10451060
Loading
Personal Weather Stations






























Interactive Weather Map New forecast layout! Learn more

10-Day Weather Forecast

Advertisements
Track Severe Weather on mobile